Temp: 8.2°C   Baro: 1005.6mb
  Wind: 0.9mph   Dir: WSW (254°)
  Rain: 0.6mm (0.0mm/hr)
  Sun: 0W/m2  Humidity: 94%

Historic data

Bath Spa Weather Station Historical Data
Daily Summary for October 24, 2022 Units:  Both    English   Metric
Daily Weekly Monthly Yearly Custom
  High: Low: Average:
Temperature: 61.8 °F /  16.6 °C 51.7 °F /  10.9 °C 54.6 °F /  12.6 °C
Dew Point: 55.6 °F /  13.1 °C 49.1 °F /  9.5 °C 51.9 °F /  11.1 °C
Humidity: 95% 77% 91%
Wind Speed: 9.1mph /  14.6km/h - 3.4mph /  5.5km/h
Wind Gust: 16mph /  25.7km/h - -
Wind- - WSW
Pressure: 29.82 in /  1009.7 hPa 29.35 in /  993.8 hPa -
Precipitation: 0.16 in /  4.06 mm    
Historical Graphs
 
 
Tabular Data for October 24, 2022
Time Temperature Dew Point Pressure Wind Wind Speed Wind Gust Humidity Rainfall Rate (Hourly) solar
00:09 52.9 °F /  11.6 °C 51.3 °F /  10.7 °C 29.35in /  993.8hPa WNW 3.6mph /  5.8km/h 6mph /  9.7km/h 94.2% 0.01in /  0.25mm 0 W/m2
00:13 52.8 °F /  11.6 °C 51.2 °F /  10.7 °C 29.35in /  993.8hPa West 3.2mph /  5.1km/h 6mph /  9.7km/h 94.3% 0.02in /  0.51mm 0 W/m2
00:19 52.7 °F /  11.5 °C 51.1 °F /  10.6 °C 29.35in /  993.8hPa West 2mph /  3.2km/h 5mph /  8km/h 94% 0.02in /  0.51mm 0 W/m2
00:24 52.5 °F /  11.4 °C 50.9 °F /  10.5 °C 29.36in /  994.1hPa West 3.4mph /  5.5km/h 7mph /  11.3km/h 94% 0.02in /  0.51mm 0 W/m2
00:29 52.5 °F /  11.4 °C 50.9 °F /  10.5 °C 29.36in /  994.1hPa West 4mph /  6.4km/h 8mph /  12.9km/h 94.2% 0.02in /  0.51mm 0 W/m2
00:34 52.5 °F /  11.4 °C 51.1 °F /  10.6 °C 29.36in /  994.1hPa West 6mph /  9.7km/h 9mph /  14.5km/h 95% 0.02in /  0.51mm 0 W/m2
00:39 52.5 °F /  11.4 °C 51.1 °F /  10.6 °C 29.36in /  994.1hPa West 4.4mph /  7.1km/h 9mph /  14.5km/h 95% 0.01in /  0.25mm 0 W/m2
00:44 52.5 °F /  11.4 °C 51.1 °F /  10.6 °C 29.36in /  994.1hPa West 3.3mph /  5.3km/h 6mph /  9.7km/h 95% 0.01in /  0.25mm 0 W/m2
00:49 52.5 °F /  11.4 °C 51.1 °F /  10.6 °C 29.37in /  994.5hPa West 2.8mph /  4.5km/h 7mph /  11.3km/h 95% 0.01in /  0.25mm 0 W/m2
00:54 52.5 °F /  11.4 °C 51.1 °F /  10.6 °C 29.37in /  994.5hPa West 2.8mph /  4.5km/h 5mph /  8km/h 95% 0.01in /  0.25mm 0 W/m2
00:59 52.5 °F /  11.4 °C 51.1 °F /  10.6 °C 29.38in /  994.8hPa West 3.2mph /  5.1km/h 6mph /  9.7km/h 95% 0.02in /  0.51mm 0 W/m2
01:04 52.5 °F /  11.4 °C 51.1 °F /  10.6 °C 29.38in /  994.8hPa West 3.3mph /  5.3km/h 5mph /  8km/h 95% 0.02in /  0.51mm 0 W/m2
01:09 52.5 °F /  11.4 °C 51.1 °F /  10.6 °C 29.38in /  994.8hPa West 4.7mph /  7.6km/h 6mph /  9.7km/h 95% 0.02in /  0.51mm 0 W/m2
01:14 52.5 °F /  11.4 °C 51.1 °F /  10.6 °C 29.39in /  995.1hPa West 4.8mph /  7.7km/h 8mph /  12.9km/h 95% 0.02in /  0.51mm 0 W/m2
01:19 52.5 °F /  11.4 °C 51.1 °F /  10.6 °C 29.39in /  995.1hPa West 4mph /  6.4km/h 8mph /  12.9km/h 95% 0.01in /  0.25mm 0 W/m2
01:24 52.5 °F /  11.4 °C 51.1 °F /  10.6 °C 29.39in /  995.1hPa West 4mph /  6.4km/h 7mph /  11.3km/h 95% 0.01in /  0.25mm 0 W/m2
01:29 52.5 °F /  11.4 °C 51.1 °F /  10.6 °C 29.40in /  995.5hPa West 3mph /  4.8km/h 6mph /  9.7km/h 95% 0.01in /  0.25mm 0 W/m2
01:34 52.5 °F /  11.4 °C 51.1 °F /  10.6 °C 29.40in /  995.5hPa WNW 2.9mph /  4.7km/h 6mph /  9.7km/h 95% 0.01in /  0.25mm 0 W/m2
01:39 52.7 °F /  11.5 °C 51.3 °F /  10.7 °C 29.40in /  995.5hPa WNW 3.2mph /  5.1km/h 5mph /  8km/h 95% 0.01in /  0.25mm 0 W/m2
01:44 52.7 °F /  11.5 °C 51.3 °F /  10.7 °C 29.40in /  995.5hPa WNW 3.3mph /  5.3km/h 6mph /  9.7km/h 95% 0.02in /  0.51mm 0 W/m2
01:49 52.8 °F /  11.6 °C 51.3 °F /  10.7 °C 29.41in /  995.8hPa WNW 2.5mph /  4km/h 5mph /  8km/h 95% 0.02in /  0.51mm 0 W/m2
01:54 52.9 °F /  11.6 °C 51.4 °F /  10.8 °C 29.41in /  995.8hPa West 3.6mph /  5.8km/h 5mph /  8km/h 95% 0.02in /  0.51mm 0 W/m2
01:59 52.9 °F /  11.6 °C 51.4 °F /  10.8 °C 29.41in /  995.8hPa West 3.6mph /  5.8km/h 6mph /  9.7km/h 95% 0.02in /  0.51mm 0 W/m2
02:04 52.9 °F /  11.6 °C 51.4 °F /  10.8 °C 29.41in /  995.8hPa West 3mph /  4.8km/h 6mph /  9.7km/h 95% 0.01in /  0.25mm 0 W/m2
02:09 52.9 °F /  11.6 °C 51.4 °F /  10.8 °C 29.42in /  996.2hPa West 2.8mph /  4.5km/h 6mph /  9.7km/h 95% 0.01in /  0.25mm 0 W/m2
02:14 52.9 °F /  11.6 °C 51.4 °F /  10.8 °C 29.42in /  996.2hPa WNW 2mph /  3.2km/h 4mph /  6.4km/h 95% 0.01in /  0.25mm 0 W/m2
02:19 52.9 °F /  11.6 °C 51.4 °F /  10.8 °C 29.43in /  996.5hPa WNW 2mph /  3.2km/h 4mph /  6.4km/h 95% 0.01in /  0.25mm 0 W/m2
02:24 53 °F /  11.7 °C 51.5 °F /  10.8 °C 29.43in /  996.5hPa West 2mph /  3.2km/h 4mph /  6.4km/h 95% 0.01in /  0.25mm 0 W/m2
02:29 53.2 °F /  11.8 °C 51.7 °F /  10.9 °C 29.43in /  996.5hPa West 2.1mph /  3.4km/h 5mph /  8km/h 95% 0.01in /  0.25mm 0 W/m2
02:34 53.4 °F /  11.9 °C 52 °F /  11.1 °C 29.44in /  996.8hPa West 2.1mph /  3.4km/h 4mph /  6.4km/h 95% 0.01in /  0.25mm 0 W/m2
02:39 53.5 °F /  11.9 °C 52.1 °F /  11.2 °C 29.44in /  996.8hPa West 3mph /  4.8km/h 6mph /  9.7km/h 95% 0.02in /  0.51mm 0 W/m2
02:44 53.8 °F /  12.1 °C 52.3 °F /  11.3 °C 29.44in /  996.8hPa West 3.7mph /  6km/h 10mph /  16.1km/h 95% 0.02in /  0.51mm 0 W/m2
02:49 53.8 °F /  12.1 °C 52.3 °F /  11.3 °C 29.45in /  997.2hPa West 3.7mph /  6km/h 7mph /  11.3km/h 95% 0.01in /  0.25mm 0 W/m2
02:54 53.8 °F /  12.1 °C 52.3 °F /  11.3 °C 29.45in /  997.2hPa WSW 4.5mph /  7.2km/h 7mph /  11.3km/h 95% 0.01in /  0.25mm 0 W/m2
02:59 54 °F /  12.2 °C 52.5 °F /  11.4 °C 29.45in /  997.2hPa WSW 3.7mph /  6km/h 9mph /  14.5km/h 95% 0.01in /  0.25mm 0 W/m2
03:04 54 °F /  12.2 °C 52.5 °F /  11.4 °C 29.45in /  997.2hPa West 4.3mph /  6.9km/h 9mph /  14.5km/h 95% 0.01in /  0.25mm 0 W/m2
03:09 54 °F /  12.2 °C 52.5 °F /  11.4 °C 29.46in /  997.5hPa West 6.2mph /  10km/h 9mph /  14.5km/h 95% 0.01in /  0.25mm 0 W/m2
03:14 54 °F /  12.2 °C 52.5 °F /  11.4 °C 29.46in /  997.5hPa WSW 4mph /  6.4km/h 9mph /  14.5km/h 95% 0.01in /  0.25mm 0 W/m2
03:19 54 °F /  12.2 °C 52.5 °F /  11.4 °C 29.46in /  997.5hPa WSW 7.4mph /  11.9km/h 14mph /  22.5km/h 95% 0.01in /  0.25mm 0 W/m2
03:24 54 °F /  12.2 °C 52.5 °F /  11.4 °C 29.46in /  997.5hPa West 3.4mph /  5.5km/h 13mph /  20.9km/h 95% 0.01in /  0.25mm 0 W/m2
03:29 53.8 °F /  12.1 °C 52.3 °F /  11.3 °C 29.47in /  997.9hPa West 5mph /  8km/h 10mph /  16.1km/h 95% 0.01in /  0.25mm 0 W/m2
03:34 53.6 °F /  12 °C 52.2 °F /  11.2 °C 29.47in /  997.9hPa WSW 6.2mph /  10km/h 9mph /  14.5km/h 95% 0.02in /  0.51mm 0 W/m2
03:39 53.4 °F /  11.9 °C 52 °F /  11.1 °C 29.47in /  997.9hPa West 3.7mph /  6km/h 9mph /  14.5km/h 95% 0.02in /  0.51mm 0 W/m2
03:44 53.4 °F /  11.9 °C 52 °F /  11.1 °C 29.47in /  997.9hPa WSW 5.6mph /  9km/h 10mph /  16.1km/h 95% 0.01in /  0.25mm 0 W/m2
03:49 53.6 °F /  12 °C 52.2 °F /  11.2 °C 29.47in /  997.9hPa West 4mph /  6.4km/h 10mph /  16.1km/h 95% 0.01in /  0.25mm 0 W/m2
03:54 53.6 °F /  12 °C 52.2 °F /  11.2 °C 29.47in /  997.9hPa WSW 5mph /  8km/h 8mph /  12.9km/h 95% 0.01in /  0.25mm 0 W/m2
03:59 53.7 °F /  12.1 °C 52.3 °F /  11.3 °C 29.47in /  997.9hPa WSW 3.8mph /  6.1km/h 8mph /  12.9km/h 95% 0.01in /  0.25mm 0 W/m2
04:04 53.8 °F /  12.1 °C 52.3 °F /  11.3 °C 29.48in /  998.2hPa WSW 5.4mph /  8.7km/h 12mph /  19.3km/h 95% 0.01in /  0.25mm 0 W/m2
04:09 53.7 °F /  12.1 °C 52.2 °F /  11.2 °C 29.48in /  998.2hPa West 6.2mph /  10km/h 12mph /  19.3km/h 95% 0.01in /  0.25mm 0 W/m2
04:14 53.5 °F /  11.9 °C 52.1 °F /  11.2 °C 29.48in /  998.2hPa WSW 4.4mph /  7.1km/h 11mph /  17.7km/h 95% 0.01in /  0.25mm 0 W/m2
04:19 53.4 °F /  11.9 °C 52 °F /  11.1 °C 29.48in /  998.2hPa WSW 6mph /  9.7km/h 11mph /  17.7km/h 95% 0.01in /  0.25mm 0 W/m2
04:24 53.4 °F /  11.9 °C 52 °F /  11.1 °C 29.49in /  998.5hPa WSW 4.6mph /  7.4km/h 10mph /  16.1km/h 95% 0.01in /  0.25mm 0 W/m2
04:29 53.2 °F /  11.8 °C 51.7 °F /  10.9 °C 29.49in /  998.5hPa West 6.2mph /  10km/h 8mph /  12.9km/h 94.6% 0.01in /  0.25mm 0 W/m2
04:34 53.2 °F /  11.8 °C 51.6 °F /  10.9 °C 29.49in /  998.5hPa WSW 4.9mph /  7.9km/h 11mph /  17.7km/h 94% 0.01in /  0.25mm 0 W/m2
04:39 53.1 °F /  11.7 °C 51.5 °F /  10.8 °C 29.49in /  998.5hPa WSW 4mph /  6.4km/h 9mph /  14.5km/h 94.4% 0.01in /  0.25mm 0 W/m2
04:44 53.1 °F /  11.7 °C 51.6 °F /  10.9 °C 29.49in /  998.5hPa West 4.5mph /  7.2km/h 8mph /  12.9km/h 95% 0.01in /  0.25mm 0 W/m2
04:49 53.1 °F /  11.7 °C 51.6 °F /  10.9 °C 29.49in /  998.5hPa WSW 4.4mph /  7.1km/h 8mph /  12.9km/h 95% 0.01in /  0.25mm 0 W/m2
04:54 52.9 °F /  11.6 °C 51.4 °F /  10.8 °C 29.50in /  998.9hPa WSW 4.4mph /  7.1km/h 8mph /  12.9km/h 95% 0.01in /  0.25mm 0 W/m2
04:59 52.9 °F /  11.6 °C 51.4 °F /  10.8 °C 29.50in /  998.9hPa West 4.3mph /  6.9km/h 9mph /  14.5km/h 95% 0.01in /  0.25mm 0 W/m2
05:04 52.9 °F /  11.6 °C 51.4 °F /  10.8 °C 29.50in /  998.9hPa WSW 3.2mph /  5.1km/h 9mph /  14.5km/h 95% 0.01in /  0.25mm 0 W/m2
05:09 52.9 °F /  11.6 °C 51.4 °F /  10.8 °C 29.51in /  999.2hPa WSW 5.6mph /  9km/h 8mph /  12.9km/h 94.8% 0.01in /  0.25mm 0 W/m2
05:13 52.8 °F /  11.6 °C 51.4 °F /  10.8 °C 29.51in /  999.2hPa WSW 4mph /  6.4km/h 9mph /  14.5km/h 95% 0.01in /  0.25mm 0 W/m2
05:19 52.8 °F /  11.6 °C 51.2 °F /  10.7 °C 29.51in /  999.2hPa WSW 2.8mph /  4.5km/h 9mph /  14.5km/h 94.4% 0.01in /  0.25mm 0 W/m2
05:24 52.7 °F /  11.5 °C 51.2 °F /  10.7 °C 29.51in /  999.2hPa WSW 4mph /  6.4km/h 8mph /  12.9km/h 94.2% 0.01in /  0.25mm 0 W/m2
05:29 52.7 °F /  11.5 °C 51.1 °F /  10.6 °C 29.52in /  999.5hPa WSW 2.8mph /  4.5km/h 7mph /  11.3km/h 94% 0.01in /  0.25mm 0 W/m2
05:34 52.7 °F /  11.5 °C 51.1 °F /  10.6 °C 29.52in /  999.5hPa WSW 3.7mph /  6km/h 9mph /  14.5km/h 94% 0.01in /  0.25mm 0 W/m2
05:39 52.6 °F /  11.4 °C 51 °F /  10.6 °C 29.52in /  999.5hPa SW 3.6mph /  5.8km/h 6mph /  9.7km/h 94% 0.01in /  0.25mm 0 W/m2
05:44 52.5 °F /  11.4 °C 50.9 °F /  10.5 °C 29.52in /  999.5hPa SW 2.4mph /  3.9km/h 5mph /  8km/h 94% 0.01in /  0.25mm 0 W/m2
05:49 52.5 °F /  11.4 °C 50.9 °F /  10.5 °C 29.52in /  999.5hPa WSW 4.4mph /  7.1km/h 7mph /  11.3km/h 94% 0.01in /  0.25mm 0 W/m2
05:54 52.5 °F /  11.4 °C 50.9 °F /  10.5 °C 29.53in /  999.9hPa WSW 2mph /  3.2km/h 7mph /  11.3km/h 94% 0.01in /  0.25mm 0 W/m2
05:58 52.5 °F /  11.4 °C 50.9 °F /  10.5 °C 29.53in /  999.9hPa WSW 3.2mph /  5.1km/h 8mph /  12.9km/h 94% 0.01in /  0.25mm 0 W/m2
06:04 52.5 °F /  11.4 °C 50.9 °F /  10.5 °C 29.53in /  999.9hPa SW 4.8mph /  7.7km/h 7mph /  11.3km/h 94% 0.01in /  0.25mm 0 W/m2
06:09 52.5 °F /  11.4 °C 50.8 °F /  10.4 °C 29.53in /  999.9hPa WSW 3mph /  4.8km/h 8mph /  12.9km/h 94% 0.01in /  0.25mm 0 W/m2
06:14 52.4 °F /  11.3 °C 50.8 °F /  10.4 °C 29.53in /  999.9hPa SW 3mph /  4.8km/h 6mph /  9.7km/h 94% 0.01in /  0.25mm 0 W/m2
06:19 52.4 °F /  11.3 °C 50.8 °F /  10.4 °C 29.54in /  1000.2hPa SW 3.4mph /  5.5km/h 7mph /  11.3km/h 94% 0.01in /  0.25mm 0 W/m2
06:24 52.3 °F /  11.3 °C 50.7 °F /  10.4 °C 29.54in /  1000.2hPa SW 2mph /  3.2km/h 5mph /  8km/h 94% 0.01in /  0.25mm 0 W/m2
06:29 52.4 °F /  11.3 °C 50.8 °F /  10.4 °C 29.54in /  1000.2hPa WSW 2.4mph /  3.9km/h 8mph /  12.9km/h 94% 0.01in /  0.25mm 0 W/m2
06:34 52.3 °F /  11.3 °C 50.7 °F /  10.4 °C 29.54in /  1000.2hPa WSW 2.1mph /  3.4km/h 4mph /  6.4km/h 94% 0.01in /  0.25mm 0 W/m2
06:39 52.3 °F /  11.3 °C 50.7 °F /  10.4 °C 29.54in /  1000.2hPa WSW 2mph /  3.2km/h 5mph /  8km/h 94% 0.01in /  0.25mm 0 W/m2
06:44 52.4 °F /  11.3 °C 50.8 °F /  10.4 °C 29.54in /  1000.2hPa West 2.4mph /  3.9km/h 7mph /  11.3km/h 94% 0.01in /  0.25mm 0 W/m2
06:49 52.3 °F /  11.3 °C 50.7 °F /  10.4 °C 29.54in /  1000.2hPa WNW 2.2mph /  3.5km/h 6mph /  9.7km/h 94% 0.01in /  0.25mm 0 W/m2
06:54 52.3 °F /  11.3 °C 50.7 °F /  10.4 °C 29.54in /  1000.2hPa West 1.6mph /  2.6km/h 6mph /  9.7km/h 94% 0.01in /  0.25mm 0 W/m2
06:59 52.3 °F /  11.3 °C 50.7 °F /  10.4 °C 29.55in /  1000.6hPa West 2.8mph /  4.5km/h 6mph /  9.7km/h 94% 0.01in /  0.25mm 0 W/m2
07:04 52.3 °F /  11.3 °C 50.7 °F /  10.4 °C 29.55in /  1000.6hPa WSW 2.4mph /  3.9km/h 7mph /  11.3km/h 94% 0.01in /  0.25mm 0 W/m2
07:09 52.3 °F /  11.3 °C 50.7 °F /  10.4 °C 29.55in /  1000.6hPa SW 0.2mph /  0.3km/h 3mph /  4.8km/h 94% 0.01in /  0.25mm 0 W/m2
07:14 52.3 °F /  11.3 °C 50.6 °F /  10.3 °C 29.55in /  1000.6hPa SW 2.2mph /  3.5km/h 8mph /  12.9km/h 94% 0.01in /  0.25mm 0 W/m2
07:19 52.2 °F /  11.2 °C 50.5 °F /  10.3 °C 29.55in /  1000.6hPa SW 3.7mph /  6km/h 9mph /  14.5km/h 94% 0.01in /  0.25mm 0 W/m2
07:24 52.2 °F /  11.2 °C 50.5 °F /  10.3 °C 29.56in /  1000.9hPa WSW 3.6mph /  5.8km/h 7mph /  11.3km/h 94% 0.01in /  0.25mm 0 W/m2
07:29 52.2 °F /  11.2 °C 50.5 °F /  10.3 °C 29.56in /  1000.9hPa SW 2.1mph /  3.4km/h 7mph /  11.3km/h 94% 0.01in /  0.25mm 0 W/m2
07:34 52.2 °F /  11.2 °C 50.5 °F /  10.3 °C 29.56in /  1000.9hPa SW 2.1mph /  3.4km/h 5mph /  8km/h 94% 0.01in /  0.25mm 0 W/m2
07:39 52.1 °F /  11.2 °C 50.4 °F /  10.2 °C 29.56in /  1000.9hPa WSW 1.1mph /  1.8km/h 6mph /  9.7km/h 94% 0.01in /  0.25mm 0 W/m2
07:44 52 °F /  11.1 °C 50.4 °F /  10.2 °C 29.57in /  1001.2hPa WSW 2.1mph /  3.4km/h 3mph /  4.8km/h 94% 0.01in /  0.25mm 0 W/m2
07:49 52 °F /  11.1 °C 50.4 °F /  10.2 °C 29.57in /  1001.2hPa WSW 1.8mph /  2.9km/h 4mph /  6.4km/h 94% 0.01in /  0.25mm 7 W/m2
07:54 51.8 °F /  11 °C 50.2 °F /  10.1 °C 29.57in /  1001.2hPa West 2.1mph /  3.4km/h 5mph /  8km/h 94% 0.01in /  0.25mm 12 W/m2
07:59 51.8 °F /  11 °C 50.2 °F /  10.1 °C 29.57in /  1001.2hPa WNW 0.6mph /  1km/h 3mph /  4.8km/h 94% 0.01in /  0.25mm 16 W/m2
08:04 51.8 °F /  11 °C 50.2 °F /  10.1 °C 29.58in /  1001.6hPa West 1.1mph /  1.8km/h 4mph /  6.4km/h 94% 0.01in /  0.25mm 16 W/m2
08:09 52 °F /  11.1 °C 50.4 °F /  10.2 °C 29.58in /  1001.6hPa WSW 0.8mph /  1.3km/h 4mph /  6.4km/h 94% 0.01in /  0.25mm 16 W/m2
08:14 52 °F /  11.1 °C 50.4 °F /  10.2 °C 29.58in /  1001.6hPa WSW 1.4mph /  2.3km/h 6mph /  9.7km/h 94% 0.01in /  0.25mm 16 W/m2
08:19 52 °F /  11.1 °C 50.4 °F /  10.2 °C 29.58in /  1001.6hPa SW 0.9mph /  1.4km/h 4mph /  6.4km/h 94% 0.01in /  0.25mm 16 W/m2
08:24 52 °F /  11.1 °C 50.4 °F /  10.2 °C 29.58in /  1001.6hPa WSW 3mph /  4.8km/h 5mph /  8km/h 94% 0.01in /  0.25mm 21 W/m2
08:29 52 °F /  11.1 °C 50.4 °F /  10.2 °C 29.59in /  1001.9hPa WSW 2.5mph /  4km/h 6mph /  9.7km/h 94% 0.01in /  0.25mm 21 W/m2
08:34 52 °F /  11.1 °C 50.4 °F /  10.2 °C 29.59in /  1001.9hPa SW 1.7mph /  2.7km/h 4mph /  6.4km/h 94% 0.01in /  0.25mm 25 W/m2
08:39 52 °F /  11.1 °C 50.4 °F /  10.2 °C 29.59in /  1001.9hPa WSW 2.4mph /  3.9km/h 6mph /  9.7km/h 94% 0.01in /  0.25mm 23 W/m2
08:44 52.2 °F /  11.2 °C 50.5 °F /  10.3 °C 29.59in /  1001.9hPa WSW 3.2mph /  5.1km/h 7mph /  11.3km/h 94% 0.01in /  0.25mm 23 W/m2
08:49 52.2 °F /  11.2 °C 50.5 °F /  10.3 °C 29.59in /  1001.9hPa WSW 2.8mph /  4.5km/h 7mph /  11.3km/h 94% 0.00in /  0mm 25 W/m2
08:54 52.2 °F /  11.2 °C 50.6 °F /  10.3 °C 29.59in /  1001.9hPa West 3.3mph /  5.3km/h 8mph /  12.9km/h 94% 0.01in /  0.25mm 26 W/m2
08:59 52.3 °F /  11.3 °C 50.7 °F /  10.4 °C 29.59in /  1001.9hPa WSW 3.4mph /  5.5km/h 6mph /  9.7km/h 94% 0.01in /  0.25mm 26 W/m2
09:04 52.5 °F /  11.4 °C 50.9 °F /  10.5 °C 29.60in /  1002.3hPa WSW 3.5mph /  5.6km/h 8mph /  12.9km/h 94% 0.01in /  0.25mm 28 W/m2
09:09 52.7 °F /  11.5 °C 51.1 °F /  10.6 °C 29.60in /  1002.3hPa SW 1.9mph /  3.1km/h 7mph /  11.3km/h 94% 0.01in /  0.25mm 35 W/m2
09:14 52.9 °F /  11.6 °C 51.3 °F /  10.7 °C 29.60in /  1002.3hPa SW 2.1mph /  3.4km/h 5mph /  8km/h 94% 0.01in /  0.25mm 46 W/m2
09:19 53.1 °F /  11.7 °C 51.4 °F /  10.8 °C 29.60in /  1002.3hPa WSW 2.8mph /  4.5km/h 5mph /  8km/h 94% 0.01in /  0.25mm 58 W/m2
09:24 53.1 °F /  11.7 °C 51.5 °F /  10.8 °C 29.60in /  1002.3hPa WSW 3.6mph /  5.8km/h 6mph /  9.7km/h 94% 0.01in /  0.25mm 67 W/m2
09:29 53.4 °F /  11.9 °C 51.8 °F /  11 °C 29.61in /  1002.6hPa SW 4.8mph /  7.7km/h 10mph /  16.1km/h 94% 0.01in /  0.25mm 76 W/m2
09:34 53.4 °F /  11.9 °C 51.8 °F /  11 °C 29.61in /  1002.6hPa SW 4.5mph /  7.2km/h 10mph /  16.1km/h 94% 0.01in /  0.25mm 86 W/m2
09:39 53.8 °F /  12.1 °C 52.2 °F /  11.2 °C 29.61in /  1002.6hPa SW 4.5mph /  7.2km/h 8mph /  12.9km/h 94% 0.01in /  0.25mm 93 W/m2
09:44 53.6 °F /  12 °C 51.7 °F /  10.9 °C 29.61in /  1002.6hPa SW 6.5mph /  10.5km/h 11mph /  17.7km/h 93.2% 0.01in /  0.25mm 93 W/m2
09:49 53.6 °F /  12 °C 51.6 °F /  10.9 °C 29.61in /  1002.6hPa SW 4.1mph /  6.6km/h 10mph /  16.1km/h 93% 0.01in /  0.25mm 125 W/m2
09:54 53.8 °F /  12.1 °C 51.8 °F /  11 °C 29.61in /  1002.6hPa SW 3.9mph /  6.3km/h 9mph /  14.5km/h 93% 0.01in /  0.25mm 134 W/m2
09:59 54.1 °F /  12.3 °C 52.1 °F /  11.2 °C 29.61in /  1002.6hPa WSW 4.7mph /  7.6km/h 10mph /  16.1km/h 92.8% 0.00in /  0mm 146 W/m2
10:04 54.2 °F /  12.3 °C 51.9 °F /  11.1 °C 29.62in /  1002.9hPa WSW 4.2mph /  6.8km/h 8mph /  12.9km/h 92% 0.01in /  0.25mm 160 W/m2
10:09 54.6 °F /  12.6 °C 52.2 °F /  11.2 °C 29.62in /  1002.9hPa SW 4.4mph /  7.1km/h 8mph /  12.9km/h 92% 0.01in /  0.25mm 181 W/m2
10:14 54.8 °F /  12.7 °C 52.4 °F /  11.3 °C 29.62in /  1002.9hPa WSW 3.3mph /  5.3km/h 8mph /  12.9km/h 92% 0.01in /  0.25mm 193 W/m2
10:19 55.2 °F /  12.9 °C 52.7 °F /  11.5 °C 29.62in /  1002.9hPa SW 4.6mph /  7.4km/h 8mph /  12.9km/h 91.4% 0.01in /  0.25mm 204 W/m2
10:24 55.2 °F /  12.9 °C 52.7 °F /  11.5 °C 29.62in /  1002.9hPa SW 6.3mph /  10.1km/h 10mph /  16.1km/h 91% 0.01in /  0.25mm 216 W/m2
10:29 55.6 °F /  13.1 °C 52.8 °F /  11.6 °C 29.62in /  1002.9hPa WSW 5.4mph /  8.7km/h 10mph /  16.1km/h 90.2% 0.01in /  0.25mm 229 W/m2
10:34 55.9 °F /  13.3 °C 53.1 °F /  11.7 °C 29.62in /  1002.9hPa SW 4.8mph /  7.7km/h 9mph /  14.5km/h 90% 0.01in /  0.25mm 230 W/m2
10:39 55.9 °F /  13.3 °C 52.7 °F /  11.5 °C 29.62in /  1002.9hPa WSW 6.6mph /  10.6km/h 15mph /  24.1km/h 89.2% 0.01in /  0.25mm 221 W/m2
10:44 56.1 °F /  13.4 °C 52.8 °F /  11.6 °C 29.62in /  1002.9hPa SW 5mph /  8km/h 10mph /  16.1km/h 88.6% 0.01in /  0.25mm 244 W/m2
10:49 56.1 °F /  13.4 °C 52.7 °F /  11.5 °C 29.62in /  1002.9hPa SW 5.7mph /  9.2km/h 10mph /  16.1km/h 88% 0.01in /  0.25mm 195 W/m2
10:54 56.3 °F /  13.5 °C 52.7 °F /  11.5 °C 29.63in /  1003.3hPa WSW 7.6mph /  12.2km/h 13mph /  20.9km/h 87.6% 0.01in /  0.25mm 272 W/m2
10:59 56.4 °F /  13.6 °C 52.6 °F /  11.4 °C 29.63in /  1003.3hPa WSW 5.6mph /  9km/h 13mph /  20.9km/h 87% 0.01in /  0.25mm 283 W/m2
11:04 56.7 °F /  13.7 °C 52.9 °F /  11.6 °C 29.63in /  1003.3hPa SW 8mph /  12.9km/h 14mph /  22.5km/h 87% 0.00in /  0mm 237 W/m2
11:09 56.8 °F /  13.8 °C 52.6 °F /  11.4 °C 29.63in /  1003.3hPa SW 5.6mph /  9km/h 14mph /  22.5km/h 86% 0.01in /  0.25mm 139 W/m2
11:14 56.7 °F /  13.7 °C 52.6 °F /  11.4 °C 29.63in /  1003.3hPa SW 5.8mph /  9.3km/h 14mph /  22.5km/h 86% 0.01in /  0.25mm 181 W/m2
11:19 56.7 °F /  13.7 °C 52.5 °F /  11.4 °C 29.63in /  1003.3hPa SW 6mph /  9.7km/h 16mph /  25.7km/h 86% 0.01in /  0.25mm 86 W/m2
11:24 56.6 °F /  13.7 °C 52.4 °F /  11.3 °C 29.63in /  1003.3hPa SW 7.6mph /  12.2km/h 14mph /  22.5km/h 86% 0.01in /  0.25mm 56 W/m2
11:29 56.5 °F /  13.6 °C 52.3 °F /  11.3 °C 29.64in /  1003.6hPa SW 5.7mph /  9.2km/h 12mph /  19.3km/h 86% 0.01in /  0.25mm 62 W/m2
11:34 56.3 °F /  13.5 °C 52.2 °F /  11.2 °C 29.64in /  1003.6hPa WSW 4.6mph /  7.4km/h 12mph /  19.3km/h 86% 0.01in /  0.25mm 72 W/m2
11:39 56.1 °F /  13.4 °C 52 °F /  11.1 °C 29.64in /  1003.6hPa WSW 4.1mph /  6.6km/h 10mph /  16.1km/h 86% 0.01in /  0.25mm 95 W/m2
11:44 56.1 °F /  13.4 °C 52 °F /  11.1 °C 29.64in /  1003.6hPa SW 6.6mph /  10.6km/h 11mph /  17.7km/h 86% 0.01in /  0.25mm 111 W/m2
11:49 56.3 °F /  13.5 °C 52.1 °F /  11.2 °C 29.64in /  1003.6hPa SW 4.7mph /  7.6km/h 10mph /  16.1km/h 86% 0.01in /  0.25mm 148 W/m2
11:54 56.5 °F /  13.6 °C 52.3 °F /  11.3 °C 29.64in /  1003.6hPa SW 4.3mph /  6.9km/h 9mph /  14.5km/h 86% 0.01in /  0.25mm 141 W/m2
11:59 56.7 °F /  13.7 °C 52.3 °F /  11.3 °C 29.64in /  1003.6hPa SW 7.1mph /  11.4km/h 16mph /  25.7km/h 85.4% 0.01in /  0.25mm 128 W/m2
12:04 56.7 °F /  13.7 °C 52.2 °F /  11.2 °C 29.65in /  1003.9hPa WSW 4.1mph /  6.6km/h 11mph /  17.7km/h 85% 0.01in /  0.25mm 158 W/m2
12:09 57 °F /  13.9 °C 52.5 °F /  11.4 °C 29.65in /  1003.9hPa SW 2.6mph /  4.2km/h 8mph /  12.9km/h 85.2% 0.01in /  0.25mm 206 W/m2
12:14 57.2 °F /  14 °C 52.7 °F /  11.5 °C 29.65in /  1003.9hPa SW 4.4mph /  7.1km/h 8mph /  12.9km/h 85% 0.00in /  0mm 413 W/m2
12:19 57.6 °F /  14.2 °C 53.1 °F /  11.7 °C 29.65in /  1003.9hPa SW 3.3mph /  5.3km/h 8mph /  12.9km/h 85% 0.00in /  0mm 362 W/m2
12:24 57.9 °F /  14.4 °C 53.4 °F /  11.9 °C 29.65in /  1003.9hPa WSW 4mph /  6.4km/h 9mph /  14.5km/h 85% 0.01in /  0.25mm 494 W/m2
12:29 58.7 °F /  14.8 °C 54 °F /  12.2 °C 29.65in /  1003.9hPa SW 3.2mph /  5.1km/h 7mph /  11.3km/h 84.6% 0.01in /  0.25mm 543 W/m2
12:34 59.6 °F /  15.3 °C 54.6 °F /  12.6 °C 29.65in /  1003.9hPa SW 6.5mph /  10.5km/h 13mph /  20.9km/h 83.6% 0.01in /  0.25mm 522 W/m2
12:39 60.1 °F /  15.6 °C 54.6 °F /  12.6 °C 29.65in /  1003.9hPa WSW 8.2mph /  13.2km/h 14mph /  22.5km/h 82.2% 0.01in /  0.25mm 478 W/m2
12:44 60.4 °F /  15.8 °C 54.5 °F /  12.5 °C 29.65in /  1003.9hPa WSW 6mph /  9.7km/h 14mph /  22.5km/h 80.8% 0.01in /  0.25mm 445 W/m2
12:49 61.1 °F /  16.2 °C 54.8 °F /  12.7 °C 29.65in /  1003.9hPa SW 7mph /  11.3km/h 11mph /  17.7km/h 80% 0.01in /  0.25mm 422 W/m2
12:54 61.3 °F /  16.3 °C 54.9 °F /  12.7 °C 29.65in /  1003.9hPa WSW 6.2mph /  10km/h 11mph /  17.7km/h 79% 0.01in /  0.25mm 413 W/m2
12:59 61.7 °F /  16.5 °C 54.8 °F /  12.7 °C 29.65in /  1003.9hPa WSW 4.4mph /  7.1km/h 11mph /  17.7km/h 78.2% 0.01in /  0.25mm 420 W/m2
13:04 61.8 °F /  16.6 °C 54.8 °F /  12.7 °C 29.65in /  1003.9hPa WSW 8.6mph /  13.8km/h 14mph /  22.5km/h 77.8% 0.01in /  0.25mm 436 W/m2
13:09 61.4 °F /  16.3 °C 54.2 °F /  12.3 °C 29.65in /  1003.9hPa SW 6.8mph /  10.9km/h 14mph /  22.5km/h 77% 0.01in /  0.25mm 434 W/m2
13:14 61.1 °F /  16.2 °C 54.1 °F /  12.3 °C 29.65in /  1003.9hPa SW 9.1mph /  14.6km/h 15mph /  24.1km/h 77.6% 0.01in /  0.25mm 417 W/m2
13:19 61 °F /  16.1 °C 54.2 °F /  12.3 °C 29.65in /  1003.9hPa SW 7.4mph /  11.9km/h 12mph /  19.3km/h 78.4% 0.01in /  0.25mm 450 W/m2
13:24 60.7 °F /  15.9 °C 54.2 °F /  12.3 °C 29.65in /  1003.9hPa WSW 5.5mph /  8.9km/h 10mph /  16.1km/h 79% 0.01in /  0.25mm 265 W/m2
13:29 60.5 °F /  15.8 °C 54.3 °F /  12.4 °C 29.65in /  1003.9hPa West 3.9mph /  6.3km/h 7mph /  11.3km/h 79.8% 0.00in /  0mm 207 W/m2
13:34 60.4 °F /  15.8 °C 54.2 °F /  12.3 °C 29.65in /  1003.9hPa West 4.2mph /  6.8km/h 8mph /  12.9km/h 80% 0.00in /  0mm 181 W/m2
13:39 60.1 °F /  15.6 °C 54 °F /  12.2 °C 29.65in /  1003.9hPa West 5mph /  8km/h 9mph /  14.5km/h 80% 0.00in /  0mm 188 W/m2
13:44 60.1 °F /  15.6 °C 54.1 °F /  12.3 °C 29.65in /  1003.9hPa West 5.2mph /  8.4km/h 12mph /  19.3km/h 80.2% 0.01in /  0.25mm 200 W/m2
13:49 60.2 °F /  15.7 °C 54.2 °F /  12.3 °C 29.65in /  1003.9hPa West 7.8mph /  12.6km/h 13mph /  20.9km/h 80.6% 0.01in /  0.25mm 410 W/m2
13:54 60.5 °F /  15.8 °C 54.4 °F /  12.4 °C 29.65in /  1003.9hPa WSW 6.3mph /  10.1km/h 12mph /  19.3km/h 80% 0.01in /  0.25mm 264 W/m2
13:59 60.8 °F /  16 °C 54.3 °F /  12.4 °C 29.65in /  1003.9hPa SSW 6.1mph /  9.8km/h 11mph /  17.7km/h 79.2% 0.01in /  0.25mm 309 W/m2
14:04 60.6 °F /  15.9 °C 53.8 °F /  12.1 °C 29.65in /  1003.9hPa SW 5.2mph /  8.4km/h 12mph /  19.3km/h 78% 0.01in /  0.25mm 176 W/m2
14:09 60.4 °F /  15.8 °C 53.8 °F /  12.1 °C 29.65in /  1003.9hPa SW 6mph /  9.7km/h 8mph /  12.9km/h 78.4% 0.01in /  0.25mm 243 W/m2
14:14 60.3 °F /  15.7 °C 53.9 °F /  12.2 °C 29.65in /  1003.9hPa SSW 6.5mph /  10.5km/h 13mph /  20.9km/h 79% 0.01in /  0.25mm 269 W/m2
14:19 60.4 °F /  15.8 °C 53.9 °F /  12.2 °C 29.65in /  1003.9hPa SW 5.3mph /  8.5km/h 13mph /  20.9km/h 79% 0.01in /  0.25mm 524 W/m2
14:23 60.2 °F /  15.7 °C 53.7 °F /  12.1 °C 29.65in /  1003.9hPa WSW 6.5mph /  10.5km/h 10mph /  16.1km/h 79% 0.01in /  0.25mm 141 W/m2
14:29 59.9 °F /  15.5 °C 53.8 °F /  12.1 °C 29.65in /  1003.9hPa West 7.4mph /  11.9km/h 12mph /  19.3km/h 80% 0.01in /  0.25mm 84 W/m2
14:34 58.6 °F /  14.8 °C 53 °F /  11.7 °C 29.66in /  1004.3hPa WNW 6mph /  9.7km/h 14mph /  22.5km/h 81.6% 0.01in /  0.25mm 35 W/m2
14:39 57.1 °F /  13.9 °C 52.3 °F /  11.3 °C 29.66in /  1004.3hPa WNW 6.8mph /  10.9km/h 15mph /  24.1km/h 84% 0.01in /  0.25mm 30 W/m2
14:44 56 °F /  13.3 °C 51.9 °F /  11.1 °C 29.66in /  1004.3hPa WSW 5.7mph /  9.2km/h 14mph /  22.5km/h 86.2% 0.01in /  0.25mm 46 W/m2
14:49 55.6 °F /  13.1 °C 52.1 °F /  11.2 °C 29.66in /  1004.3hPa West 5.1mph /  8.2km/h 11mph /  17.7km/h 87.6% 0.00in /  0mm 54 W/m2
14:54 55.4 °F /  13 °C 52.2 °F /  11.2 °C 29.66in /  1004.3hPa West 6mph /  9.7km/h 11mph /  17.7km/h 88.8% 0.00in /  0mm 62 W/m2
14:59 55.3 °F /  12.9 °C 52.2 °F /  11.2 °C 29.66in /  1004.3hPa West 5.3mph /  8.5km/h 8mph /  12.9km/h 89.2% 0.00in /  0mm 54 W/m2
15:04 55.3 °F /  12.9 °C 52.4 °F /  11.3 °C 29.66in /  1004.3hPa West 3.7mph /  6km/h 8mph /  12.9km/h 90% 0.00in /  0mm 58 W/m2
15:09 55.2 °F /  12.9 °C 52.4 °F /  11.3 °C 29.66in /  1004.3hPa West 4mph /  6.4km/h 6mph /  9.7km/h 90.2% 0.01in /  0.25mm 56 W/m2
15:14 55.4 °F /  13 °C 52.9 °F /  11.6 °C 29.66in /  1004.3hPa West 2.8mph /  4.5km/h 6mph /  9.7km/h 91% 0.01in /  0.25mm 47 W/m2
15:19 55.4 °F /  13 °C 52.9 °F /  11.6 °C 29.66in /  1004.3hPa West 1.9mph /  3.1km/h 5mph /  8km/h 91% 0.01in /  0.25mm 46 W/m2
15:24 55.4 °F /  13 °C 52.9 °F /  11.6 °C 29.66in /  1004.3hPa WSW 1.7mph /  2.7km/h 6mph /  9.7km/h 91% 0.01in /  0.25mm 111 W/m2
15:29 55.6 °F /  13.1 °C 53.2 °F /  11.8 °C 29.66in /  1004.3hPa WSW 1.2mph /  1.9km/h 4mph /  6.4km/h 91.4% 0.01in /  0.25mm 287 W/m2
15:34 56.4 °F /  13.6 °C 54 °F /  12.2 °C 29.66in /  1004.3hPa WSW 1.7mph /  2.7km/h 4mph /  6.4km/h 92% 0.01in /  0.25mm 418 W/m2
15:39 57 °F /  13.9 °C 54.7 °F /  12.6 °C 29.66in /  1004.3hPa SW 2.4mph /  3.9km/h 7mph /  11.3km/h 92% 0.01in /  0.25mm 308 W/m2
15:44 57.5 °F /  14.2 °C 55.2 °F /  12.9 °C 29.66in /  1004.3hPa SW 2.5mph /  4km/h 7mph /  11.3km/h 92% 0.01in /  0.25mm 258 W/m2
15:49 57.7 °F /  14.3 °C 55.4 °F /  13 °C 29.66in /  1004.3hPa SW 3.6mph /  5.8km/h 8mph /  12.9km/h 92% 0.01in /  0.25mm 176 W/m2
15:54 57.8 °F /  14.3 °C 55.4 °F /  13 °C 29.66in /  1004.3hPa SW 3.8mph /  6.1km/h 8mph /  12.9km/h 91.6% 0.01in /  0.25mm 218 W/m2
15:59 58.1 °F /  14.5 °C 55.4 °F /  13 °C 29.66in /  1004.3hPa WSW 4.1mph /  6.6km/h 7mph /  11.3km/h 91% 0.01in /  0.25mm 188 W/m2
16:04 58.3 °F /  14.6 °C 55.6 °F /  13.1 °C 29.66in /  1004.3hPa WSW 3.3mph /  5.3km/h 7mph /  11.3km/h 91% 0.01in /  0.25mm 204 W/m2
16:09 58.3 °F /  14.6 °C 55.6 °F /  13.1 °C 29.67in /  1004.6hPa SW 2.2mph /  3.5km/h 6mph /  9.7km/h 91% 0.00in /  0mm 204 W/m2
16:14 58.2 °F /  14.6 °C 55.4 °F /  13 °C 29.67in /  1004.6hPa WSW 2.7mph /  4.3km/h 6mph /  9.7km/h 90.6% 0.00in /  0mm 120 W/m2
16:19 57.7 °F /  14.3 °C 54.9 °F /  12.7 °C 29.67in /  1004.6hPa WSW 2.9mph /  4.7km/h 7mph /  11.3km/h 90% 0.00in /  0mm 137 W/m2
16:24 57.9 °F /  14.4 °C 55 °F /  12.8 °C 29.67in /  1004.6hPa SW 3.7mph /  6km/h 6mph /  9.7km/h 90% 0.00in /  0mm 142 W/m2
16:29 57.9 °F /  14.4 °C 55 °F /  12.8 °C 29.67in /  1004.6hPa WSW 4.1mph /  6.6km/h 6mph /  9.7km/h 90% 0.00in /  0mm 114 W/m2
16:34 57.9 °F /  14.4 °C 55 °F /  12.8 °C 29.67in /  1004.6hPa WSW 3.6mph /  5.8km/h 7mph /  11.3km/h 90% 0.01in /  0.25mm 105 W/m2
16:39 57.9 °F /  14.4 °C 54.9 °F /  12.7 °C 29.67in /  1004.6hPa WSW 1.9mph /  3.1km/h 5mph /  8km/h 89.6% 0.01in /  0.25mm 86 W/m2
16:44 57.7 °F /  14.3 °C 54.5 °F /  12.5 °C 29.67in /  1004.6hPa WSW 3mph /  4.8km/h 6mph /  9.7km/h 89% 0.01in /  0.25mm 70 W/m2
16:49 57.6 °F /  14.2 °C 54.3 °F /  12.4 °C 29.67in /  1004.6hPa WSW 2.1mph /  3.4km/h 4mph /  6.4km/h 89% 0.01in /  0.25mm 39 W/m2
16:54 57.4 °F /  14.1 °C 54.1 °F /  12.3 °C 29.68in /  1005hPa WSW 2.7mph /  4.3km/h 5mph /  8km/h 89% 0.01in /  0.25mm 35 W/m2
16:59 57.1 °F /  13.9 °C 53.9 °F /  12.2 °C 29.68in /  1005hPa WSW 2.4mph /  3.9km/h 5mph /  8km/h 89% 0.01in /  0.25mm 30 W/m2
17:04 57 °F /  13.9 °C 53.8 °F /  12.1 °C 29.68in /  1005hPa WSW 1.3mph /  2.1km/h 4mph /  6.4km/h 89% 0.01in /  0.25mm 42 W/m2
17:09 57 °F /  13.9 °C 53.8 °F /  12.1 °C 29.68in /  1005hPa WSW 1.6mph /  2.6km/h 4mph /  6.4km/h 89% 0.01in /  0.25mm 42 W/m2
17:14 57 °F /  13.9 °C 54 °F /  12.2 °C 29.68in /  1005hPa WSW 1.2mph /  1.9km/h 3mph /  4.8km/h 89.6% 0.01in /  0.25mm 39 W/m2
17:19 57 °F /  13.9 °C 54.1 °F /  12.3 °C 29.69in /  1005.3hPa WSW 0.4mph /  0.6km/h 3mph /  4.8km/h 90% 0.01in /  0.25mm 33 W/m2
17:24 56.8 °F /  13.8 °C 54 °F /  12.2 °C 29.69in /  1005.3hPa WSW 1.8mph /  2.9km/h 5mph /  8km/h 90% 0.01in /  0.25mm 30 W/m2
17:29 56.7 °F /  13.7 °C 53.9 °F /  12.2 °C 29.69in /  1005.3hPa WSW 2.9mph /  4.7km/h 5mph /  8km/h 90% 0.01in /  0.25mm 32 W/m2
17:34 56.7 °F /  13.7 °C 53.8 °F /  12.1 °C 29.69in /  1005.3hPa WSW 1.6mph /  2.6km/h 5mph /  8km/h 90% 0.01in /  0.25mm 28 W/m2
17:39 56.5 °F /  13.6 °C 53.6 °F /  12 °C 29.70in /  1005.6hPa WSW 0.9mph /  1.4km/h 3mph /  4.8km/h 90% 0.00in /  0mm 21 W/m2
17:44 56.4 °F /  13.6 °C 53.5 °F /  11.9 °C 29.70in /  1005.6hPa WSW 0.9mph /  1.4km/h 3mph /  4.8km/h 90% 0.00in /  0mm 16 W/m2
17:49 56.2 °F /  13.4 °C 53.3 °F /  11.8 °C 29.70in /  1005.6hPa WSW 0.2mph /  0.3km/h 1mph /  1.6km/h 90% 0.00in /  0mm 9 W/m2
17:54 56.1 °F /  13.4 °C 53.2 °F /  11.8 °C 29.70in /  1005.6hPa WSW 0.9mph /  1.4km/h 3mph /  4.8km/h 90% 0.00in /  0mm 7 W/m2
17:59 56.1 °F /  13.4 °C 53.2 °F /  11.8 °C 29.70in /  1005.6hPa WSW 0.4mph /  0.6km/h 3mph /  4.8km/h 90% 0.00in /  0mm 5 W/m2
18:04 56.1 °F /  13.4 °C 53.2 °F /  11.8 °C 29.70in /  1005.6hPa WSW 0.6mph /  1km/h 3mph /  4.8km/h 90% 0.00in /  0mm 0 W/m2
18:09 55.9 °F /  13.3 °C 53 °F /  11.7 °C 29.71in /  1006hPa WSW 0.6mph /  1km/h 3mph /  4.8km/h 90% 0.00in /  0mm 0 W/m2
18:14 55.8 °F /  13.2 °C 52.9 °F /  11.6 °C 29.71in /  1006hPa WSW 0.4mph /  0.6km/h 3mph /  4.8km/h 90% 0.01in /  0.25mm 0 W/m2
18:19 55.6 °F /  13.1 °C 52.7 °F /  11.5 °C 29.71in /  1006hPa WSW 1.3mph /  2.1km/h 4mph /  6.4km/h 90% 0.01in /  0.25mm 0 W/m2
18:24 55.3 °F /  12.9 °C 52.7 °F /  11.5 °C 29.71in /  1006hPa WSW 0.8mph /  1.3km/h 2mph /  3.2km/h 90.8% 0.01in /  0.25mm 0 W/m2
18:29 55.1 °F /  12.8 °C 52.6 °F /  11.4 °C 29.72in /  1006.3hPa WSW 1.2mph /  1.9km/h 3mph /  4.8km/h 91% 0.01in /  0.25mm 0 W/m2
18:34 55 °F /  12.8 °C 52.5 °F /  11.4 °C 29.72in /  1006.3hPa WSW 1.7mph /  2.7km/h 5mph /  8km/h 91% 0.01in /  0.25mm 0 W/m2
18:39 55 °F /  12.8 °C 52.5 °F /  11.4 °C 29.72in /  1006.3hPa WSW 1.7mph /  2.7km/h 5mph /  8km/h 91% 0.01in /  0.25mm 0 W/m2
18:44 55 °F /  12.8 °C 52.5 °F /  11.4 °C 29.72in /  1006.3hPa WSW 1.5mph /  2.4km/h 4mph /  6.4km/h 91% 0.01in /  0.25mm 0 W/m2
18:49 55 °F /  12.8 °C 52.5 °F /  11.4 °C 29.72in /  1006.3hPa WSW 2.1mph /  3.4km/h 5mph /  8km/h 91% 0.01in /  0.25mm 0 W/m2
18:54 55 °F /  12.8 °C 52.5 °F /  11.4 °C 29.72in /  1006.3hPa SW 2.2mph /  3.5km/h 5mph /  8km/h 91% 0.01in /  0.25mm 0 W/m2
18:59 55.2 °F /  12.9 °C 52.7 °F /  11.5 °C 29.73in /  1006.7hPa WSW 2.5mph /  4km/h 6mph /  9.7km/h 91% 0.01in /  0.25mm 0 W/m2
19:04 55.2 °F /  12.9 °C 52.7 °F /  11.5 °C 29.73in /  1006.7hPa West 3.3mph /  5.3km/h 6mph /  9.7km/h 91% 0.01in /  0.25mm 0 W/m2
19:09 55.2 °F /  12.9 °C 52.5 °F /  11.4 °C 29.73in /  1006.7hPa West 2.5mph /  4km/h 5mph /  8km/h 90.4% 0.01in /  0.25mm 0 W/m2
19:14 55.3 °F /  12.9 °C 52.4 °F /  11.3 °C 29.73in /  1006.7hPa West 2mph /  3.2km/h 6mph /  9.7km/h 90% 0.01in /  0.25mm 0 W/m2
19:24 55.2 °F /  12.9 °C 52.3 °F /  11.3 °C 29.74in /  1007hPa West 2.7mph /  4.3km/h 5mph /  8km/h 90% 0.00in /  0mm 0 W/m2
19:29 55.2 °F /  12.9 °C 52.1 °F /  11.2 °C 29.74in /  1007hPa West 0.9mph /  1.4km/h 4mph /  6.4km/h 89.2% 0.00in /  0mm 0 W/m2
19:34 55 °F /  12.8 °C 51.8 °F /  11 °C 29.75in /  1007.3hPa West 1.1mph /  1.8km/h 2mph /  3.2km/h 89% 0.00in /  0mm 0 W/m2
19:39 55 °F /  12.8 °C 51.7 °F /  10.9 °C 29.75in /  1007.3hPa West 0.5mph /  0.8km/h 2mph /  3.2km/h 89% 0.00in /  0mm 0 W/m2
19:44 54.7 °F /  12.6 °C 51.4 °F /  10.8 °C 29.75in /  1007.3hPa West 1.4mph /  2.3km/h 3mph /  4.8km/h 89% 0.00in /  0mm 0 W/m2
19:49 54.6 °F /  12.6 °C 51.4 °F /  10.8 °C 29.75in /  1007.3hPa West 1.4mph /  2.3km/h 4mph /  6.4km/h 89% 0.00in /  0mm 0 W/m2
19:54 54.3 °F /  12.4 °C 51.4 °F /  10.8 °C 29.75in /  1007.3hPa West 1.1mph /  1.8km/h 4mph /  6.4km/h 90% 0.00in /  0mm 0 W/m2
19:59 54.2 °F /  12.3 °C 51.3 °F /  10.7 °C 29.76in /  1007.7hPa West 0.7mph /  1.1km/h 3mph /  4.8km/h 90% 0.00in /  0mm 0 W/m2
20:04 54.2 °F /  12.3 °C 51.3 °F /  10.7 °C 29.76in /  1007.7hPa West 1.6mph /  2.6km/h 4mph /  6.4km/h 90% 0.00in /  0mm 0 W/m2
20:09 54.2 °F /  12.3 °C 51.4 °F /  10.8 °C 29.76in /  1007.7hPa West 1.7mph /  2.7km/h 3mph /  4.8km/h 90% 0.00in /  0mm 0 W/m2
20:14 54.1 °F /  12.3 °C 50.9 °F /  10.5 °C 29.76in /  1007.7hPa WSW 2.8mph /  4.5km/h 5mph /  8km/h 89.2% 0.00in /  0mm 0 W/m2
20:19 54 °F /  12.2 °C 50.9 °F /  10.5 °C 29.76in /  1007.7hPa SW 2.6mph /  4.2km/h 5mph /  8km/h 89.6% 0.01in /  0.25mm 0 W/m2
20:24 53.8 °F /  12.1 °C 50.9 °F /  10.5 °C 29.76in /  1007.7hPa SW 2.4mph /  3.9km/h 4mph /  6.4km/h 90% 0.01in /  0.25mm 0 W/m2
20:29 53.8 °F /  12.1 °C 50.9 °F /  10.5 °C 29.76in /  1007.7hPa WSW 2.3mph /  3.7km/h 6mph /  9.7km/h 90% 0.01in /  0.25mm 0 W/m2
20:34 53.6 °F /  12 °C 50.7 °F /  10.4 °C 29.76in /  1007.7hPa WSW 1.2mph /  1.9km/h 5mph /  8km/h 90% 0.01in /  0.25mm 0 W/m2
20:39 53.4 °F /  11.9 °C 50.5 °F /  10.3 °C 29.77in /  1008hPa WSW 1.1mph /  1.8km/h 3mph /  4.8km/h 90% 0.01in /  0.25mm 0 W/m2
20:44 53.4 °F /  11.9 °C 50.5 °F /  10.3 °C 29.77in /  1008hPa WSW 2mph /  3.2km/h 4mph /  6.4km/h 90% 0.01in /  0.25mm 0 W/m2
20:49 53.4 °F /  11.9 °C 50.5 °F /  10.3 °C 29.77in /  1008hPa SW 2.8mph /  4.5km/h 6mph /  9.7km/h 90% 0.01in /  0.25mm 0 W/m2
20:54 53.5 °F /  11.9 °C 50.6 °F /  10.3 °C 29.77in /  1008hPa SSW 3.9mph /  6.3km/h 7mph /  11.3km/h 90% 0.01in /  0.25mm 0 W/m2
20:59 53.8 °F /  12.1 °C 50.9 °F /  10.5 °C 29.77in /  1008hPa SW 4.2mph /  6.8km/h 7mph /  11.3km/h 90% 0.01in /  0.25mm 0 W/m2
21:04 53.8 °F /  12.1 °C 50.8 °F /  10.4 °C 29.77in /  1008hPa SSW 4.1mph /  6.6km/h 8mph /  12.9km/h 89.8% 0.01in /  0.25mm 0 W/m2
21:09 53.8 °F /  12.1 °C 50.5 °F /  10.3 °C 29.77in /  1008hPa SSW 3.1mph /  5km/h 6mph /  9.7km/h 89% 0.01in /  0.25mm 0 W/m2
21:14 53.7 °F /  12.1 °C 50.5 °F /  10.3 °C 29.77in /  1008hPa SW 2mph /  3.2km/h 5mph /  8km/h 89% 0.01in /  0.25mm 0 W/m2
21:19 53.5 °F /  11.9 °C 50.3 °F /  10.2 °C 29.77in /  1008hPa SW 1.2mph /  1.9km/h 4mph /  6.4km/h 89% 0.01in /  0.25mm 0 W/m2
21:24 53.3 °F /  11.8 °C 50.1 °F /  10.1 °C 29.78in /  1008.4hPa SW 2.2mph /  3.5km/h 5mph /  8km/h 89% 0.00in /  0mm 0 W/m2
21:29 53.2 °F /  11.8 °C 50 °F /  10 °C 29.78in /  1008.4hPa WSW 2mph /  3.2km/h 5mph /  8km/h 89% 0.00in /  0mm 0 W/m2
21:34 53.1 °F /  11.7 °C 49.8 °F /  9.9 °C 29.78in /  1008.4hPa WSW 2.4mph /  3.9km/h 6mph /  9.7km/h 89% 0.00in /  0mm 0 W/m2
21:39 53 °F /  11.7 °C 49.7 °F /  9.8 °C 29.78in /  1008.4hPa WSW 2.4mph /  3.9km/h 4mph /  6.4km/h 89% 0.00in /  0mm 0 W/m2
21:44 52.9 °F /  11.6 °C 49.8 °F /  9.9 °C 29.78in /  1008.4hPa WSW 1.9mph /  3.1km/h 7mph /  11.3km/h 89.6% 0.00in /  0mm 0 W/m2
21:49 52.6 °F /  11.4 °C 49.7 °F /  9.8 °C 29.78in /  1008.4hPa WSW 1.3mph /  2.1km/h 3mph /  4.8km/h 89.4% 0.00in /  0mm 0 W/m2
21:54 52.4 °F /  11.3 °C 49.5 °F /  9.7 °C 29.78in /  1008.4hPa WSW 1.3mph /  2.1km/h 3mph /  4.8km/h 89.8% 0.00in /  0mm 0 W/m2
21:59 52.3 °F /  11.3 °C 49.5 °F /  9.7 °C 29.78in /  1008.4hPa WSW 1mph /  1.6km/h 4mph /  6.4km/h 90% 0.00in /  0mm 0 W/m2
22:04 52.3 °F /  11.3 °C 49.5 °F /  9.7 °C 29.79in /  1008.7hPa WSW 2.6mph /  4.2km/h 6mph /  9.7km/h 90% 0.01in /  0.25mm 0 W/m2
22:09 52.3 °F /  11.3 °C 49.5 °F /  9.7 °C 29.79in /  1008.7hPa WSW 2.6mph /  4.2km/h 6mph /  9.7km/h 90% 0.01in /  0.25mm 0 W/m2
22:14 52.3 °F /  11.3 °C 49.5 °F /  9.7 °C 29.79in /  1008.7hPa West 0.5mph /  0.8km/h 4mph /  6.4km/h 90% 0.01in /  0.25mm 0 W/m2
22:19 52.3 °F /  11.3 °C 49.5 °F /  9.7 °C 29.79in /  1008.7hPa WSW 1.6mph /  2.6km/h 5mph /  8km/h 90% 0.01in /  0.25mm 0 W/m2
22:24 52.3 °F /  11.3 °C 49.5 °F /  9.7 °C 29.79in /  1008.7hPa WSW 1.4mph /  2.3km/h 5mph /  8km/h 90% 0.01in /  0.25mm 0 W/m2
22:29 52.3 °F /  11.3 °C 49.5 °F /  9.7 °C 29.80in /  1009hPa WSW 2.2mph /  3.5km/h 6mph /  9.7km/h 90% 0.01in /  0.25mm 0 W/m2
22:34 52.3 °F /  11.3 °C 49.7 °F /  9.8 °C 29.80in /  1009hPa West 2.4mph /  3.9km/h 5mph /  8km/h 90.8% 0.01in /  0.25mm 0 W/m2
22:39 52.2 °F /  11.2 °C 49.6 °F /  9.8 °C 29.80in /  1009hPa West 1.7mph /  2.7km/h 4mph /  6.4km/h 91% 0.01in /  0.25mm 0 W/m2
22:44 52.1 °F /  11.2 °C 49.2 °F /  9.6 °C 29.80in /  1009hPa West 2mph /  3.2km/h 5mph /  8km/h 90% 0.01in /  0.25mm 0 W/m2
22:49 52 °F /  11.1 °C 49.2 °F /  9.6 °C 29.80in /  1009hPa West 0.6mph /  1km/h 3mph /  4.8km/h 90.2% 0.01in /  0.25mm 0 W/m2
22:54 52 °F /  11.1 °C 49.4 °F /  9.7 °C 29.80in /  1009hPa West 0.5mph /  0.8km/h 3mph /  4.8km/h 90.8% 0.01in /  0.25mm 0 W/m2
22:59 51.8 °F /  11 °C 49.3 °F /  9.6 °C 29.80in /  1009hPa SSW 1.6mph /  2.6km/h 5mph /  8km/h 91% 0.01in /  0.25mm 0 W/m2
23:04 52 °F /  11.1 °C 49.5 °F /  9.7 °C 29.80in /  1009hPa SSW 2.9mph /  4.7km/h 6mph /  9.7km/h 91% 0.01in /  0.25mm 0 W/m2
23:09 52.2 °F /  11.2 °C 49.6 °F /  9.8 °C 29.80in /  1009hPa SSW 2.9mph /  4.7km/h 7mph /  11.3km/h 91% 0.00in /  0mm 0 W/m2
23:14 52.3 °F /  11.3 °C 49.8 °F /  9.9 °C 29.80in /  1009hPa WSW 3.3mph /  5.3km/h 8mph /  12.9km/h 91% 0.00in /  0mm 0 W/m2
23:19 52.3 °F /  11.3 °C 49.8 °F /  9.9 °C 29.80in /  1009hPa WSW 1.7mph /  2.7km/h 5mph /  8km/h 91% 0.00in /  0mm 0 W/m2
23:24 52.3 °F /  11.3 °C 49.8 °F /  9.9 °C 29.81in /  1009.4hPa SW 2.1mph /  3.4km/h 5mph /  8km/h 91% 0.00in /  0mm 0 W/m2
23:29 52.2 °F /  11.2 °C 49.4 °F /  9.7 °C 29.81in /  1009.4hPa WSW 2.5mph /  4km/h 6mph /  9.7km/h 90.2% 0.00in /  0mm 0 W/m2
23:34 52.2 °F /  11.2 °C 49.4 °F /  9.7 °C 29.81in /  1009.4hPa SW 2.4mph /  3.9km/h 7mph /  11.3km/h 90.2% 0.01in /  0.25mm 0 W/m2
23:39 52.1 °F /  11.2 °C 49.2 °F /  9.6 °C 29.81in /  1009.4hPa SW 2.5mph /  4km/h 4mph /  6.4km/h 90% 0.01in /  0.25mm 0 W/m2
23:44 52 °F /  11.1 °C 49.1 °F /  9.5 °C 29.81in /  1009.4hPa WSW 1.9mph /  3.1km/h 4mph /  6.4km/h 90% 0.01in /  0.25mm 0 W/m2
23:49 52 °F /  11.1 °C 49.1 °F /  9.5 °C 29.82in /  1009.7hPa WSW 3.3mph /  5.3km/h 8mph /  12.9km/h 90% 0.01in /  0.25mm 0 W/m2
23:54 52 °F /  11.1 °C 49.2 °F /  9.6 °C 29.82in /  1009.7hPa WSW 1.4mph /  2.3km/h 8mph /  12.9km/h 90.4% 0.01in /  0.25mm 0 W/m2
23:59 51.7 °F /  10.9 °C 49.2 °F /  9.6 °C 29.82in /  1009.7hPa WSW 1mph /  1.6km/h 3mph /  4.8km/h 91% 0.01in /  0.25mm 0 W/m2
Bath Spa Weather
Compliments of Weather Underground - 2 mb